sensor_id;sensor_type;location;lat;lon;timestamp;P1;durP1;ratioP1;P2;durP2;ratioP2
38581;SDS011;24349;53.720;10.014;2023-07-22T00:00:41;13.57;;;9.23;;
38581;SDS011;24349;53.720;10.014;2023-07-22T00:03:06;13.20;;;9.70;;
38581;SDS011;24349;53.720;10.014;2023-07-22T00:05:32;12.30;;;8.55;;
38581;SDS011;24349;53.720;10.014;2023-07-22T00:07:58;15.52;;;10.68;;
38581;SDS011;24349;53.720;10.014;2023-07-22T00:10:24;12.63;;;9.48;;
38581;SDS011;24349;53.720;10.014;2023-07-22T00:12:49;13.88;;;9.75;;
38581;SDS011;24349;53.720;10.014;2023-07-22T00:15:15;14.93;;;10.93;;
38581;SDS011;24349;53.720;10.014;2023-07-22T00:17:41;14.10;;;9.35;;
38581;SDS011;24349;53.720;10.014;2023-07-22T00:20:07;14.90;;;10.32;;
38581;SDS011;24349;53.720;10.014;2023-07-22T00:22:36;13.48;;;9.30;;
38581;SDS011;24349;53.720;10.014;2023-07-22T00:25:03;15.95;;;10.60;;
38581;SDS011;24349;53.720;10.014;2023-07-22T00:27:29;13.52;;;9.23;;
38581;SDS011;24349;53.720;10.014;2023-07-22T00:29:54;12.60;;;8.85;;
38581;SDS011;24349;53.720;10.014;2023-07-22T00:32:20;15.27;;;10.38;;
38581;SDS011;24349;53.720;10.014;2023-07-22T00:34:46;15.45;;;10.43;;
38581;SDS011;24349;53.720;10.014;2023-07-22T00:37:11;15.80;;;10.52;;
38581;SDS011;24349;53.720;10.014;2023-07-22T00:39:37;16.65;;;11.02;;
38581;SDS011;24349;53.720;10.014;2023-07-22T00:42:02;13.50;;;8.93;;
38581;SDS011;24349;53.720;10.014;2023-07-22T00:44:28;16.25;;;10.13;;
38581;SDS011;24349;53.720;10.014;2023-07-22T00:46:54;16.33;;;10.07;;
38581;SDS011;24349;53.720;10.014;2023-07-22T00:49:22;17.08;;;11.15;;
38581;SDS011;24349;53.720;10.014;2023-07-22T00:51:50;15.70;;;10.25;;
38581;SDS011;24349;53.720;10.014;2023-07-22T00:54:16;16.35;;;10.85;;
38581;SDS011;24349;53.720;10.014;2023-07-22T00:56:42;16.35;;;10.75;;
38581;SDS011;24349;53.720;10.014;2023-07-22T00:59:09;17.75;;;10.88;;
38581;SDS011;24349;53.720;10.014;2023-07-22T01:01:34;17.90;;;11.45;;
38581;SDS011;24349;53.720;10.014;2023-07-22T01:04:00;20.13;;;11.35;;
38581;SDS011;24349;53.720;10.014;2023-07-22T01:06:26;17.73;;;11.40;;
38581;SDS011;24349;53.720;10.014;2023-07-22T01:08:56;16.83;;;10.80;;
38581;SDS011;24349;53.720;10.014;2023-07-22T01:11:23;16.42;;;11.50;;
38581;SDS011;24349;53.720;10.014;2023-07-22T01:13:49;18.55;;;11.70;;
38581;SDS011;24349;53.720;10.014;2023-07-22T01:16:14;17.77;;;11.07;;
38581;SDS011;24349;53.720;10.014;2023-07-22T01:18:42;16.52;;;10.82;;
38581;SDS011;24349;53.720;10.014;2023-07-22T01:21:08;16.50;;;11.27;;
38581;SDS011;24349;53.720;10.014;2023-07-22T01:23:35;17.88;;;11.07;;
38581;SDS011;24349;53.720;10.014;2023-07-22T01:26:02;17.58;;;11.38;;
38581;SDS011;24349;53.720;10.014;2023-07-22T01:28:28;14.93;;;9.80;;
38581;SDS011;24349;53.720;10.014;2023-07-22T01:30:53;15.85;;;10.88;;
38581;SDS011;24349;53.720;10.014;2023-07-22T01:33:19;20.02;;;12.48;;
38581;SDS011;24349;53.720;10.014;2023-07-22T01:35:45;14.75;;;10.00;;
38581;SDS011;24349;53.720;10.014;2023-07-22T01:38:11;17.33;;;11.65;;
38581;SDS011;24349;53.720;10.014;2023-07-22T01:40:36;17.02;;;10.95;;
38581;SDS011;24349;53.720;10.014;2023-07-22T01:43:03;21.65;;;12.23;;
38581;SDS011;24349;53.720;10.014;2023-07-22T01:45:28;23.60;;;13.00;;
38581;SDS011;24349;53.720;10.014;2023-07-22T01:47:54;17.10;;;10.45;;
38581;SDS011;24349;53.720;10.014;2023-07-22T01:50:19;20.95;;;12.75;;
38581;SDS011;24349;53.720;10.014;2023-07-22T01:52:45;19.13;;;12.23;;
38581;SDS011;24349;53.720;10.014;2023-07-22T01:55:14;21.95;;;12.98;;
38581;SDS011;24349;53.720;10.014;2023-07-22T01:57:41;21.23;;;13.35;;
38581;SDS011;24349;53.720;10.014;2023-07-22T02:00:07;20.38;;;12.60;;
38581;SDS011;24349;53.720;10.014;2023-07-22T02:02:35;18.02;;;11.90;;
38581;SDS011;24349;53.720;10.014;2023-07-22T02:05:01;20.52;;;12.57;;
38581;SDS011;24349;53.720;10.014;2023-07-22T02:07:27;23.83;;;13.82;;
38581;SDS011;24349;53.720;10.014;2023-07-22T02:09:54;21.80;;;13.43;;
38581;SDS011;24349;53.720;10.014;2023-07-22T02:12:20;23.45;;;14.30;;
38581;SDS011;24349;53.720;10.014;2023-07-22T02:14:45;27.85;;;14.32;;
38581;SDS011;24349;53.720;10.014;2023-07-22T02:17:11;23.45;;;14.65;;
38581;SDS011;24349;53.720;10.014;2023-07-22T02:19:36;23.95;;;14.18;;
38581;SDS011;24349;53.720;10.014;2023-07-22T02:22:03;22.65;;;13.00;;
38581;SDS011;24349;53.720;10.014;2023-07-22T02:24:29;21.85;;;12.25;;
38581;SDS011;24349;53.720;10.014;2023-07-22T02:26:55;22.73;;;12.70;;
38581;SDS011;24349;53.720;10.014;2023-07-22T02:29:21;21.23;;;12.77;;
38581;SDS011;24349;53.720;10.014;2023-07-22T02:31:47;19.70;;;11.02;;
38581;SDS011;24349;53.720;10.014;2023-07-22T02:34:12;22.80;;;13.25;;
38581;SDS011;24349;53.720;10.014;2023-07-22T02:36:38;20.73;;;11.38;;
38581;SDS011;24349;53.720;10.014;2023-07-22T02:39:03;16.75;;;9.80;;
38581;SDS011;24349;53.720;10.014;2023-07-22T02:41:29;20.27;;;11.05;;
38581;SDS011;24349;53.720;10.014;2023-07-22T02:43:55;19.70;;;11.18;;
38581;SDS011;24349;53.720;10.014;2023-07-22T02:46:20;19.75;;;10.93;;
38581;SDS011;24349;53.720;10.014;2023-07-22T02:48:46;21.63;;;11.35;;
38581;SDS011;24349;53.720;10.014;2023-07-22T02:51:12;18.10;;;10.50;;
38581;SDS011;24349;53.720;10.014;2023-07-22T02:53:38;16.00;;;10.45;;
38581;SDS011;24349;53.720;10.014;2023-07-22T02:56:04;16.42;;;10.48;;
38581;SDS011;24349;53.720;10.014;2023-07-22T02:58:31;19.63;;;11.07;;
38581;SDS011;24349;53.720;10.014;2023-07-22T03:01:00;18.67;;;11.10;;
38581;SDS011;24349;53.720;10.014;2023-07-22T03:03:26;19.98;;;10.63;;
38581;SDS011;24349;53.720;10.014;2023-07-22T03:05:52;15.82;;;8.95;;
38581;SDS011;24349;53.720;10.014;2023-07-22T03:08:17;18.58;;;10.55;;
38581;SDS011;24349;53.720;10.014;2023-07-22T03:10:44;14.00;;;7.63;;
38581;SDS011;24349;53.720;10.014;2023-07-22T03:13:16;16.33;;;9.30;;
38581;SDS011;24349;53.720;10.014;2023-07-22T03:15:43;18.17;;;10.95;;
38581;SDS011;24349;53.720;10.014;2023-07-22T03:18:09;18.65;;;9.68;;
38581;SDS011;24349;53.720;10.014;2023-07-22T03:20:38;18.58;;;10.05;;
38581;SDS011;24349;53.720;10.014;2023-07-22T03:23:04;19.92;;;9.98;;
38581;SDS011;24349;53.720;10.014;2023-07-22T03:25:31;15.35;;;8.50;;
38581;SDS011;24349;53.720;10.014;2023-07-22T03:27:57;19.17;;;10.35;;
38581;SDS011;24349;53.720;10.014;2023-07-22T03:30:27;21.10;;;10.35;;
38581;SDS011;24349;53.720;10.014;2023-07-22T03:32:52;16.20;;;9.85;;
38581;SDS011;24349;53.720;10.014;2023-07-22T03:35:18;16.80;;;10.32;;
38581;SDS011;24349;53.720;10.014;2023-07-22T03:37:44;18.50;;;9.85;;
38581;SDS011;24349;53.720;10.014;2023-07-22T03:40:09;17.13;;;10.80;;
38581;SDS011;24349;53.720;10.014;2023-07-22T03:42:48;15.88;;;9.52;;
38581;SDS011;24349;53.720;10.014;2023-07-22T03:45:14;20.73;;;11.15;;
38581;SDS011;24349;53.720;10.014;2023-07-22T03:47:40;18.73;;;10.82;;
38581;SDS011;24349;53.720;10.014;2023-07-22T03:50:06;17.38;;;10.00;;
38581;SDS011;24349;53.720;10.014;2023-07-22T03:52:32;18.92;;;10.50;;
38581;SDS011;24349;53.720;10.014;2023-07-22T03:54:58;18.70;;;10.52;;
38581;SDS011;24349;53.720;10.014;2023-07-22T03:57:27;21.63;;;10.68;;
38581;SDS011;24349;53.720;10.014;2023-07-22T03:59:53;17.45;;;10.07;;
38581;SDS011;24349;53.720;10.014;2023-07-22T04:02:19;22.30;;;10.98;;
38581;SDS011;24349;53.720;10.014;2023-07-22T04:04:45;18.52;;;10.75;;
38581;SDS011;24349;53.720;10.014;2023-07-22T04:07:10;18.70;;;9.55;;
38581;SDS011;24349;53.720;10.014;2023-07-22T04:09:36;19.92;;;11.10;;
38581;SDS011;24349;53.720;10.014;2023-07-22T04:12:01;22.30;;;11.13;;
38581;SDS011;24349;53.720;10.014;2023-07-22T04:14:27;18.92;;;10.02;;
38581;SDS011;24349;53.720;10.014;2023-07-22T04:16:53;19.33;;;9.52;;
38581;SDS011;24349;53.720;10.014;2023-07-22T04:19:19;20.40;;;10.80;;
38581;SDS011;24349;53.720;10.014;2023-07-22T04:21:44;19.42;;;10.93;;
38581;SDS011;24349;53.720;10.014;2023-07-22T04:24:10;19.30;;;10.98;;
38581;SDS011;24349;53.720;10.014;2023-07-22T04:26:36;22.20;;;11.82;;
38581;SDS011;24349;53.720;10.014;2023-07-22T04:29:01;21.20;;;11.18;;
38581;SDS011;24349;53.720;10.014;2023-07-22T04:31:27;20.25;;;11.02;;
38581;SDS011;24349;53.720;10.014;2023-07-22T04:33:52;21.67;;;12.23;;
38581;SDS011;24349;53.720;10.014;2023-07-22T04:36:18;15.45;;;9.20;;
38581;SDS011;24349;53.720;10.014;2023-07-22T04:38:44;18.20;;;10.68;;
38581;SDS011;24349;53.720;10.014;2023-07-22T04:41:09;19.75;;;10.70;;
38581;SDS011;24349;53.720;10.014;2023-07-22T04:43:35;20.10;;;10.15;;
38581;SDS011;24349;53.720;10.014;2023-07-22T04:46:00;21.42;;;10.48;;
38581;SDS011;24349;53.720;10.014;2023-07-22T04:48:26;20.25;;;11.35;;
38581;SDS011;24349;53.720;10.014;2023-07-22T04:50:51;20.73;;;11.30;;
38581;SDS011;24349;53.720;10.014;2023-07-22T04:53:17;19.60;;;10.70;;
38581;SDS011;24349;53.720;10.014;2023-07-22T04:55:43;18.20;;;9.75;;
38581;SDS011;24349;53.720;10.014;2023-07-22T04:58:09;18.00;;;10.07;;
38581;SDS011;24349;53.720;10.014;2023-07-22T05:00:35;18.98;;;10.85;;
38581;SDS011;24349;53.720;10.014;2023-07-22T05:03:04;19.30;;;11.15;;
38581;SDS011;24349;53.720;10.014;2023-07-22T05:05:31;20.15;;;11.07;;
38581;SDS011;24349;53.720;10.014;2023-07-22T05:07:57;20.40;;;11.40;;
38581;SDS011;24349;53.720;10.014;2023-07-22T05:10:23;17.58;;;9.95;;
38581;SDS011;24349;53.720;10.014;2023-07-22T05:12:48;20.95;;;11.00;;
38581;SDS011;24349;53.720;10.014;2023-07-22T05:15:14;20.77;;;10.27;;
38581;SDS011;24349;53.720;10.014;2023-07-22T05:17:40;19.08;;;10.98;;
38581;SDS011;24349;53.720;10.014;2023-07-22T05:20:06;20.23;;;10.73;;
38581;SDS011;24349;53.720;10.014;2023-07-22T05:22:35;20.50;;;10.32;;
38581;SDS011;24349;53.720;10.014;2023-07-22T05:25:02;20.52;;;10.52;;
38581;SDS011;24349;53.720;10.014;2023-07-22T05:27:29;16.98;;;8.60;;
38581;SDS011;24349;53.720;10.014;2023-07-22T05:29:54;14.32;;;8.68;;
38581;SDS011;24349;53.720;10.014;2023-07-22T05:32:20;16.58;;;9.90;;
38581;SDS011;24349;53.720;10.014;2023-07-22T05:34:46;14.15;;;7.53;;
38581;SDS011;24349;53.720;10.014;2023-07-22T05:37:11;12.93;;;8.48;;
38581;SDS011;24349;53.720;10.014;2023-07-22T05:39:37;15.27;;;9.30;;
38581;SDS011;24349;53.720;10.014;2023-07-22T05:42:03;16.38;;;10.30;;
38581;SDS011;24349;53.720;10.014;2023-07-22T05:44:28;15.77;;;9.45;;
38581;SDS011;24349;53.720;10.014;2023-07-22T05:46:54;16.77;;;9.52;;
38581;SDS011;24349;53.720;10.014;2023-07-22T05:49:20;17.40;;;8.90;;
38581;SDS011;24349;53.720;10.014;2023-07-22T05:51:45;13.68;;;7.90;;
38581;SDS011;24349;53.720;10.014;2023-07-22T05:54:11;14.77;;;8.32;;
38581;SDS011;24349;53.720;10.014;2023-07-22T05:56:37;17.13;;;8.98;;
38581;SDS011;24349;53.720;10.014;2023-07-22T05:59:02;18.95;;;8.95;;
38581;SDS011;24349;53.720;10.014;2023-07-22T06:01:29;13.45;;;7.50;;
38581;SDS011;24349;53.720;10.014;2023-07-22T06:03:54;13.43;;;6.57;;
38581;SDS011;24349;53.720;10.014;2023-07-22T06:06:20;13.00;;;7.80;;
38581;SDS011;24349;53.720;10.014;2023-07-22T06:08:46;14.10;;;7.13;;
38581;SDS011;24349;53.720;10.014;2023-07-22T06:11:11;11.82;;;6.53;;
38581;SDS011;24349;53.720;10.014;2023-07-22T06:13:37;11.27;;;6.85;;
38581;SDS011;24349;53.720;10.014;2023-07-22T06:16:02;13.07;;;6.57;;
38581;SDS011;24349;53.720;10.014;2023-07-22T06:18:28;10.48;;;5.57;;
38581;SDS011;24349;53.720;10.014;2023-07-22T06:20:54;12.30;;;6.20;;
38581;SDS011;24349;53.720;10.014;2023-07-22T06:23:19;10.15;;;5.80;;
38581;SDS011;24349;53.720;10.014;2023-07-22T06:25:45;8.45;;;5.05;;
38581;SDS011;24349;53.720;10.014;2023-07-22T06:28:10;11.38;;;5.50;;
38581;SDS011;24349;53.720;10.014;2023-07-22T06:30:36;9.07;;;4.75;;
38581;SDS011;24349;53.720;10.014;2023-07-22T06:33:02;9.98;;;4.50;;
38581;SDS011;24349;53.720;10.014;2023-07-22T06:35:27;10.18;;;3.95;;
38581;SDS011;24349;53.720;10.014;2023-07-22T06:37:53;7.40;;;4.18;;
38581;SDS011;24349;53.720;10.014;2023-07-22T06:40:19;11.35;;;5.88;;
38581;SDS011;24349;53.720;10.014;2023-07-22T06:42:44;10.45;;;4.80;;
38581;SDS011;24349;53.720;10.014;2023-07-22T06:45:10;9.60;;;4.30;;
38581;SDS011;24349;53.720;10.014;2023-07-22T06:47:36;9.90;;;5.18;;
38581;SDS011;24349;53.720;10.014;2023-07-22T06:50:02;8.68;;;4.18;;
38581;SDS011;24349;53.720;10.014;2023-07-22T06:52:29;9.43;;;4.68;;
38581;SDS011;24349;53.720;10.014;2023-07-22T06:54:55;6.43;;;3.00;;
38581;SDS011;24349;53.720;10.014;2023-07-22T06:57:21;10.07;;;3.80;;
38581;SDS011;24349;53.720;10.014;2023-07-22T06:59:47;8.73;;;3.70;;
38581;SDS011;24349;53.720;10.014;2023-07-22T07:02:13;6.75;;;3.65;;
38581;SDS011;24349;53.720;10.014;2023-07-22T07:04:38;7.13;;;3.67;;
38581;SDS011;24349;53.720;10.014;2023-07-22T07:07:04;7.68;;;3.42;;
38581;SDS011;24349;53.720;10.014;2023-07-22T07:09:29;6.80;;;4.00;;
38581;SDS011;24349;53.720;10.014;2023-07-22T07:11:55;9.50;;;3.47;;
38581;SDS011;24349;53.720;10.014;2023-07-22T07:14:23;5.10;;;2.83;;
38581;SDS011;24349;53.720;10.014;2023-07-22T07:16:52;7.30;;;3.00;;
38581;SDS011;24349;53.720;10.014;2023-07-22T07:19:18;6.68;;;2.85;;
38581;SDS011;24349;53.720;10.014;2023-07-22T07:21:43;6.05;;;2.85;;
38581;SDS011;24349;53.720;10.014;2023-07-22T07:24:09;7.60;;;2.60;;
38581;SDS011;24349;53.720;10.014;2023-07-22T07:26:34;9.43;;;4.47;;
38581;SDS011;24349;53.720;10.014;2023-07-22T07:29:00;6.22;;;2.78;;
38581;SDS011;24349;53.720;10.014;2023-07-22T07:31:26;5.40;;;2.28;;
38581;SDS011;24349;53.720;10.014;2023-07-22T07:33:52;5.57;;;2.38;;
38581;SDS011;24349;53.720;10.014;2023-07-22T07:36:18;5.00;;;1.80;;
38581;SDS011;24349;53.720;10.014;2023-07-22T07:38:43;5.50;;;2.22;;
38581;SDS011;24349;53.720;10.014;2023-07-22T07:41:09;6.43;;;3.15;;
38581;SDS011;24349;53.720;10.014;2023-07-22T07:43:36;5.97;;;2.72;;
38581;SDS011;24349;53.720;10.014;2023-07-22T07:46:16;8.63;;;2.80;;
38581;SDS011;24349;53.720;10.014;2023-07-22T07:48:47;5.88;;;2.10;;
38581;SDS011;24349;53.720;10.014;2023-07-22T07:51:14;5.35;;;2.00;;
38581;SDS011;24349;53.720;10.014;2023-07-22T07:53:41;4.65;;;1.75;;
38581;SDS011;24349;53.720;10.014;2023-07-22T07:56:09;6.28;;;1.70;;
38581;SDS011;24349;53.720;10.014;2023-07-22T07:58:35;7.15;;;2.03;;
38581;SDS011;24349;53.720;10.014;2023-07-22T08:01:01;6.75;;;1.60;;
38581;SDS011;24349;53.720;10.014;2023-07-22T08:03:27;3.75;;;1.58;;
38581;SDS011;24349;53.720;10.014;2023-07-22T08:05:53;4.60;;;1.52;;
38581;SDS011;24349;53.720;10.014;2023-07-22T08:08:19;5.30;;;1.63;;
38581;SDS011;24349;53.720;10.014;2023-07-22T08:10:46;5.30;;;1.83;;
38581;SDS011;24349;53.720;10.014;2023-07-22T08:13:11;5.40;;;1.65;;
38581;SDS011;24349;53.720;10.014;2023-07-22T08:15:37;6.68;;;2.97;;
38581;SDS011;24349;53.720;10.014;2023-07-22T08:18:02;5.18;;;1.80;;
38581;SDS011;24349;53.720;10.014;2023-07-22T08:20:29;5.80;;;1.85;;
38581;SDS011;24349;53.720;10.014;2023-07-22T08:22:55;5.18;;;1.50;;
38581;SDS011;24349;53.720;10.014;2023-07-22T08:25:21;5.47;;;1.75;;
38581;SDS011;24349;53.720;10.014;2023-07-22T08:27:46;3.95;;;1.40;;
38581;SDS011;24349;53.720;10.014;2023-07-22T08:30:12;4.53;;;1.60;;
38581;SDS011;24349;53.720;10.014;2023-07-22T08:32:38;4.55;;;1.90;;
38581;SDS011;24349;53.720;10.014;2023-07-22T08:35:03;4.97;;;2.00;;
38581;SDS011;24349;53.720;10.014;2023-07-22T08:37:30;3.83;;;1.60;;
38581;SDS011;24349;53.720;10.014;2023-07-22T08:39:56;4.65;;;1.58;;
38581;SDS011;24349;53.720;10.014;2023-07-22T08:42:21;6.80;;;1.77;;
38581;SDS011;24349;53.720;10.014;2023-07-22T08:44:48;4.80;;;1.63;;
38581;SDS011;24349;53.720;10.014;2023-07-22T08:47:21;3.72;;;1.65;;
38581;SDS011;24349;53.720;10.014;2023-07-22T08:49:50;4.72;;;1.80;;
38581;SDS011;24349;53.720;10.014;2023-07-22T08:52:18;4.72;;;1.40;;
38581;SDS011;24349;53.720;10.014;2023-07-22T08:54:44;4.00;;;1.55;;
38581;SDS011;24349;53.720;10.014;2023-07-22T08:57:12;6.57;;;1.50;;
38581;SDS011;24349;53.720;10.014;2023-07-22T08:59:37;4.30;;;1.40;;
38581;SDS011;24349;53.720;10.014;2023-07-22T09:02:03;4.90;;;1.83;;
38581;SDS011;24349;53.720;10.014;2023-07-22T09:04:30;3.97;;;1.52;;
38581;SDS011;24349;53.720;10.014;2023-07-22T09:06:55;4.22;;;1.60;;
38581;SDS011;24349;53.720;10.014;2023-07-22T09:09:21;4.05;;;1.65;;
38581;SDS011;24349;53.720;10.014;2023-07-22T09:11:49;5.32;;;1.50;;
38581;SDS011;24349;53.720;10.014;2023-07-22T09:14:15;4.15;;;1.40;;
38581;SDS011;24349;53.720;10.014;2023-07-22T09:16:43;3.90;;;1.60;;
38581;SDS011;24349;53.720;10.014;2023-07-22T09:19:09;4.05;;;1.50;;
38581;SDS011;24349;53.720;10.014;2023-07-22T09:21:35;4.85;;;1.70;;
38581;SDS011;24349;53.720;10.014;2023-07-22T09:24:19;6.35;;;3.65;;
38581;SDS011;24349;53.720;10.014;2023-07-22T09:26:48;4.82;;;1.80;;
38581;SDS011;24349;53.720;10.014;2023-07-22T09:29:14;4.95;;;1.50;;
38581;SDS011;24349;53.720;10.014;2023-07-22T09:31:50;4.38;;;1.40;;
38581;SDS011;24349;53.720;10.014;2023-07-22T09:34:17;3.83;;;1.50;;
38581;SDS011;24349;53.720;10.014;2023-07-22T09:37:16;3.88;;;1.50;;
38581;SDS011;24349;53.720;10.014;2023-07-22T09:39:36;5.18;;;1.38;;
38581;SDS011;24349;53.720;10.014;2023-07-22T09:42:01;4.78;;;1.63;;
38581;SDS011;24349;53.720;10.014;2023-07-22T09:44:31;4.22;;;1.30;;
38581;SDS011;24349;53.720;10.014;2023-07-22T09:46:57;5.20;;;1.30;;
38581;SDS011;24349;53.720;10.014;2023-07-22T09:49:23;3.40;;;1.40;;
38581;SDS011;24349;53.720;10.014;2023-07-22T09:51:50;3.20;;;1.30;;
38581;SDS011;24349;53.720;10.014;2023-07-22T09:54:17;3.65;;;1.45;;
38581;SDS011;24349;53.720;10.014;2023-07-22T09:56:45;4.43;;;1.70;;
38581;SDS011;24349;53.720;10.014;2023-07-22T09:59:12;4.75;;;1.50;;
38581;SDS011;24349;53.720;10.014;2023-07-22T10:01:41;6.05;;;1.38;;
38581;SDS011;24349;53.720;10.014;2023-07-22T10:04:08;2.83;;;1.25;;
38581;SDS011;24349;53.720;10.014;2023-07-22T10:06:35;4.10;;;1.30;;
38581;SDS011;24349;53.720;10.014;2023-07-22T10:09:04;4.57;;;1.40;;
38581;SDS011;24349;53.720;10.014;2023-07-22T10:11:32;3.63;;;1.15;;
38581;SDS011;24349;53.720;10.014;2023-07-22T10:13:59;3.20;;;1.50;;
38581;SDS011;24349;53.720;10.014;2023-07-22T10:16:26;2.97;;;1.13;;
38581;SDS011;24349;53.720;10.014;2023-07-22T10:18:53;3.08;;;1.30;;
38581;SDS011;24349;53.720;10.014;2023-07-22T10:21:19;4.95;;;1.83;;
38581;SDS011;24349;53.720;10.014;2023-07-22T10:23:46;3.55;;;1.38;;
38581;SDS011;24349;53.720;10.014;2023-07-22T10:26:13;6.10;;;1.52;;
38581;SDS011;24349;53.720;10.014;2023-07-22T10:28:41;4.22;;;1.40;;
38581;SDS011;24349;53.720;10.014;2023-07-22T10:31:08;4.00;;;1.40;;
38581;SDS011;24349;53.720;10.014;2023-07-22T10:33:34;3.70;;;1.30;;
38581;SDS011;24349;53.720;10.014;2023-07-22T10:36:04;3.03;;;1.35;;
38581;SDS011;24349;53.720;10.014;2023-07-22T10:38:30;4.50;;;1.30;;
38581;SDS011;24349;53.720;10.014;2023-07-22T10:40:56;4.72;;;1.40;;
38581;SDS011;24349;53.720;10.014;2023-07-22T10:43:26;5.15;;;1.63;;
38581;SDS011;24349;53.720;10.014;2023-07-22T10:45:56;4.68;;;1.40;;
38581;SDS011;24349;53.720;10.014;2023-07-22T10:48:34;3.75;;;1.25;;
38581;SDS011;24349;53.720;10.014;2023-07-22T10:51:06;4.43;;;1.40;;
38581;SDS011;24349;53.720;10.014;2023-07-22T10:53:43;3.72;;;1.42;;
38581;SDS011;24349;53.720;10.014;2023-07-22T11:06:39;4.25;;;1.45;;
38581;SDS011;24349;53.720;10.014;2023-07-22T11:09:05;4.40;;;1.80;;
38581;SDS011;24349;53.720;10.014;2023-07-22T11:14:16;3.35;;;1.40;;
38581;SDS011;24349;53.720;10.014;2023-07-22T11:16:46;4.55;;;1.75;;
38581;SDS011;24349;53.720;10.014;2023-07-22T11:19:12;3.97;;;1.67;;
38581;SDS011;24349;53.720;10.014;2023-07-22T11:21:43;4.25;;;1.60;;
38581;SDS011;24349;53.720;10.014;2023-07-22T11:24:09;4.95;;;2.20;;
38581;SDS011;24349;53.720;10.014;2023-07-22T11:26:35;5.13;;;2.15;;
38581;SDS011;24349;53.720;10.014;2023-07-22T11:29:02;5.00;;;1.92;;
38581;SDS011;24349;53.720;10.014;2023-07-22T11:31:36;5.35;;;2.00;;
38581;SDS011;24349;53.720;10.014;2023-07-22T11:34:03;4.38;;;2.08;;
38581;SDS011;24349;53.720;10.014;2023-07-22T11:36:29;4.15;;;1.90;;
38581;SDS011;24349;53.720;10.014;2023-07-22T11:39:03;4.68;;;2.00;;
38581;SDS011;24349;53.720;10.014;2023-07-22T11:41:29;5.32;;;2.20;;
38581;SDS011;24349;53.720;10.014;2023-07-22T11:43:56;4.18;;;2.00;;
38581;SDS011;24349;53.720;10.014;2023-07-22T11:46:22;5.18;;;2.58;;
38581;SDS011;24349;53.720;10.014;2023-07-22T11:48:49;4.95;;;2.15;;
38581;SDS011;24349;53.720;10.014;2023-07-22T11:51:16;4.38;;;2.17;;
38581;SDS011;24349;53.720;10.014;2023-07-22T11:53:45;4.55;;;2.13;;
38581;SDS011;24349;53.720;10.014;2023-07-22T11:56:18;4.90;;;2.42;;
38581;SDS011;24349;53.720;10.014;2023-07-22T11:58:52;4.93;;;2.30;;
38581;SDS011;24349;53.720;10.014;2023-07-22T12:01:21;4.95;;;2.55;;
38581;SDS011;24349;53.720;10.014;2023-07-22T12:03:48;5.55;;;2.60;;
38581;SDS011;24349;53.720;10.014;2023-07-22T12:06:14;4.93;;;2.53;;
38581;SDS011;24349;53.720;10.014;2023-07-22T12:08:48;5.55;;;2.72;;
38581;SDS011;24349;53.720;10.014;2023-07-22T12:11:21;6.63;;;3.30;;
38581;SDS011;24349;53.720;10.014;2023-07-22T12:13:49;6.22;;;3.60;;
38581;SDS011;24349;53.720;10.014;2023-07-22T12:16:37;5.80;;;3.15;;
38581;SDS011;24349;53.720;10.014;2023-07-22T12:19:05;5.13;;;3.10;;
38581;SDS011;24349;53.720;10.014;2023-07-22T12:21:31;6.43;;;3.67;;
38581;SDS011;24349;53.720;10.014;2023-07-22T12:23:57;5.80;;;3.10;;
38581;SDS011;24349;53.720;10.014;2023-07-22T12:26:23;7.88;;;3.20;;
38581;SDS011;24349;53.720;10.014;2023-07-22T12:28:48;6.30;;;3.63;;
38581;SDS011;24349;53.720;10.014;2023-07-22T12:31:14;5.35;;;2.97;;
38581;SDS011;24349;53.720;10.014;2023-07-22T12:33:40;6.65;;;3.67;;
38581;SDS011;24349;53.720;10.014;2023-07-22T12:36:05;6.53;;;3.58;;
38581;SDS011;24349;53.720;10.014;2023-07-22T12:38:31;5.53;;;3.50;;
38581;SDS011;24349;53.720;10.014;2023-07-22T12:40:57;7.03;;;3.50;;
38581;SDS011;24349;53.720;10.014;2023-07-22T12:43:22;6.03;;;3.33;;
38581;SDS011;24349;53.720;10.014;2023-07-22T12:45:48;8.02;;;3.67;;
38581;SDS011;24349;53.720;10.014;2023-07-22T12:48:15;7.00;;;3.95;;
38581;SDS011;24349;53.720;10.014;2023-07-22T12:50:42;7.90;;;4.43;;
38581;SDS011;24349;53.720;10.014;2023-07-22T12:53:08;11.05;;;7.05;;
38581;SDS011;24349;53.720;10.014;2023-07-22T12:55:33;9.13;;;5.97;;
38581;SDS011;24349;53.720;10.014;2023-07-22T12:57:59;9.65;;;6.28;;
38581;SDS011;24349;53.720;10.014;2023-07-22T13:00:25;10.40;;;6.68;;
38581;SDS011;24349;53.720;10.014;2023-07-22T13:02:50;9.77;;;6.45;;
38581;SDS011;24349;53.720;10.014;2023-07-22T13:05:16;8.32;;;5.57;;
38581;SDS011;24349;53.720;10.014;2023-07-22T13:07:42;10.75;;;6.45;;
38581;SDS011;24349;53.720;10.014;2023-07-22T13:10:08;10.13;;;5.63;;
38581;SDS011;24349;53.720;10.014;2023-07-22T13:12:39;9.48;;;5.30;;
38581;SDS011;24349;53.720;10.014;2023-07-22T13:15:04;8.00;;;5.05;;
38581;SDS011;24349;53.720;10.014;2023-07-22T13:17:33;8.35;;;5.40;;
38581;SDS011;24349;53.720;10.014;2023-07-22T13:19:59;9.43;;;5.93;;
38581;SDS011;24349;53.720;10.014;2023-07-22T13:22:24;8.45;;;5.57;;
38581;SDS011;24349;53.720;10.014;2023-07-22T13:24:50;10.77;;;6.15;;
38581;SDS011;24349;53.720;10.014;2023-07-22T13:27:16;8.25;;;5.55;;
38581;SDS011;24349;53.720;10.014;2023-07-22T13:29:41;8.70;;;5.88;;
38581;SDS011;24349;53.720;10.014;2023-07-22T13:32:07;9.93;;;6.40;;
38581;SDS011;24349;53.720;10.014;2023-07-22T13:34:33;7.88;;;5.60;;
38581;SDS011;24349;53.720;10.014;2023-07-22T13:36:58;11.52;;;5.70;;
38581;SDS011;24349;53.720;10.014;2023-07-22T13:39:24;7.97;;;5.45;;
38581;SDS011;24349;53.720;10.014;2023-07-22T13:41:49;8.50;;;5.03;;
38581;SDS011;24349;53.720;10.014;2023-07-22T13:44:15;8.80;;;6.25;;
38581;SDS011;24349;53.720;10.014;2023-07-22T13:46:41;8.30;;;5.68;;
38581;SDS011;24349;53.720;10.014;2023-07-22T13:49:07;16.35;;;7.18;;
38581;SDS011;24349;53.720;10.014;2023-07-22T13:51:33;10.85;;;6.13;;
38581;SDS011;24349;53.720;10.014;2023-07-22T13:54:02;9.48;;;6.68;;
38581;SDS011;24349;53.720;10.014;2023-07-22T13:56:34;12.27;;;7.70;;
38581;SDS011;24349;53.720;10.014;2023-07-22T13:59:00;9.57;;;5.75;;
38581;SDS011;24349;53.720;10.014;2023-07-22T14:01:26;9.52;;;6.57;;
38581;SDS011;24349;53.720;10.014;2023-07-22T14:03:52;12.75;;;7.78;;
38581;SDS011;24349;53.720;10.014;2023-07-22T14:06:18;10.68;;;7.65;;
38581;SDS011;24349;53.720;10.014;2023-07-22T14:08:44;11.23;;;6.68;;
38581;SDS011;24349;53.720;10.014;2023-07-22T14:11:09;10.10;;;7.00;;
38581;SDS011;24349;53.720;10.014;2023-07-22T14:13:35;11.20;;;7.68;;
38581;SDS011;24349;53.720;10.014;2023-07-22T14:16:01;10.88;;;8.27;;
38581;SDS011;24349;53.720;10.014;2023-07-22T14:18:28;12.90;;;7.40;;
38581;SDS011;24349;53.720;10.014;2023-07-22T14:20:54;12.88;;;8.18;;
38581;SDS011;24349;53.720;10.014;2023-07-22T14:23:19;13.52;;;8.60;;
38581;SDS011;24349;53.720;10.014;2023-07-22T14:25:45;12.38;;;8.50;;
38581;SDS011;24349;53.720;10.014;2023-07-22T14:28:11;14.48;;;9.07;;
38581;SDS011;24349;53.720;10.014;2023-07-22T14:30:36;13.70;;;8.93;;
38581;SDS011;24349;53.720;10.014;2023-07-22T14:33:02;12.35;;;8.13;;